Time;durP1;ratioP1;P1;durP2;ratioP2;P2;SDS_P1;SDS_P2;PMS_P1;PMS_P2;Temp;Humidity;BMP_temperature;BMP_pressure;BME280_temperature;BME280_humidity;BME280_pressure;Samples;Min_cycle;Max_cycle;Signal;HPM_P1;HPM_P2
2022/01/03 00:01:39;;;;;;;40.42;10.93;;;12.40;99.90;;;11.77;100.00;101787.81;4163631;28;20026;-66
2022/01/03 00:03:41;;;;;;;33.22;8.30;;;12.40;99.90;;;11.69;100.00;101777.88;4165734;28;20060;-67
2022/01/03 00:05:42;;;;;;;39.63;6.88;;;12.40;99.90;;;11.76;100.00;101789.63;4171151;28;20046;-66
2022/01/03 00:07:46;;;;;;;36.33;7.20;;;12.40;99.90;;;11.85;100.00;101791.44;4171456;28;20034;-66
2022/01/03 00:09:47;;;;;;;43.28;9.15;;;12.40;99.90;;;11.70;100.00;101787.53;4171116;28;20064;-67
2022/01/03 00:11:48;;;;;;;32.35;7.93;;;12.40;99.90;;;11.79;100.00;101786.69;4171348;28;20026;-67
2022/01/03 00:13:51;;;;;;;40.00;7.78;;;12.40;99.90;;;11.76;100.00;101776.41;4171189;28;20119;-66
2022/01/03 00:15:55;;;;;;;39.67;8.00;;;12.50;99.90;;;11.85;100.00;101775.56;4171380;28;20072;-66
2022/01/03 00:17:56;;;;;;;40.88;7.57;;;12.50;99.90;;;11.81;100.00;101768.88;4171155;28;20033;-66
2022/01/03 00:19:57;;;;;;;49.80;8.85;;;12.50;99.90;;;11.73;100.00;101771.38;4171261;28;20485;-66
2022/01/03 00:22:07;;;;;;;35.53;8.13;;;12.50;99.90;;;11.70;100.00;101761.09;4169399;28;20032;-67
2022/01/03 00:24:10;;;;;;;44.33;8.75;;;12.50;99.90;;;11.83;100.00;101782.78;4154512;28;20034;-67
2022/01/03 00:26:19;;;;;;;41.15;6.57;;;12.50;99.90;;;11.72;100.00;101777.63;4163226;28;20034;-67
2022/01/03 00:28:30;;;;;;;44.65;7.63;;;12.40;99.90;;;11.66;100.00;101776.34;4169477;28;20381;-67
2022/01/03 00:30:37;;;;;;;32.75;6.47;;;12.50;99.90;;;11.68;100.00;101770.91;4158765;28;20071;-67
2022/01/03 00:32:43;;;;;;;37.75;7.60;;;12.40;99.90;;;11.69;100.00;101759.38;4161803;28;20022;-67
2022/01/03 00:34:46;;;;;;;35.45;6.53;;;12.40;99.90;;;11.68;100.00;101757.69;4154685;28;20044;-66
2022/01/03 00:36:51;;;;;;;35.22;6.40;;;12.50;99.90;;;11.77;100.00;101759.53;4154681;28;20025;-66
2022/01/03 00:38:55;;;;;;;43.08;7.68;;;12.40;99.90;;;11.72;100.00;101753.84;4154330;28;20572;-67
2022/01/03 00:40:59;;;;;;;39.97;8.00;;;12.50;99.90;;;11.74;100.00;101759.00;4154596;28;20397;-67
2022/01/03 00:43:01;;;;;;;37.78;5.60;;;12.50;99.90;;;11.68;100.00;101764.81;4154484;28;20478;-66
2022/01/03 00:45:04;;;;;;;45.78;6.07;;;12.40;99.90;;;11.71;100.00;101773.31;4141549;28;20026;-66
2022/01/03 00:47:05;;;;;;;49.15;7.38;;;12.50;99.90;;;11.71;100.00;101762.75;4162178;28;20033;-66
2022/01/03 00:49:06;;;;;;;33.67;6.65;;;12.40;99.90;;;11.71;100.00;101768.03;4170745;28;20496;-66
2022/01/03 00:51:07;;;;;;;50.20;8.48;;;12.40;99.90;;;11.60;100.00;101761.03;4170712;28;20038;-66
2022/01/03 00:53:08;;;;;;;36.22;7.35;;;12.40;99.90;;;11.71;100.00;101764.56;4164425;28;20034;-66
2022/01/03 00:55:10;;;;;;;44.25;7.13;;;12.40;99.90;;;11.65;100.00;101750.88;4160773;28;20026;-66
2022/01/03 00:57:34;;;;;;;43.05;7.43;;;12.40;99.90;;;11.57;100.00;101748.09;4170636;28;20025;-66
2022/01/03 00:59:52;;;;;;;37.97;7.63;;;12.50;99.90;;;11.60;100.00;101762.84;4153320;28;20026;-66
2022/01/03 01:01:55;;;;;;;39.83;7.88;;;12.40;99.90;;;11.66;100.00;101767.59;4162163;28;20417;-67
2022/01/03 01:03:57;;;;;;;35.83;7.50;;;12.40;99.90;;;11.69;100.00;101764.66;4170475;28;20524;-66
2022/01/03 01:06:01;;;;;;;35.08;6.63;;;12.40;99.90;;;11.64;100.00;101748.41;4152845;28;20050;-66
2022/01/03 01:08:02;;;;;;;37.72;6.82;;;12.40;99.90;;;11.53;100.00;101746.69;4160687;28;20040;-67
2022/01/03 01:10:06;;;;;;;40.58;6.20;;;12.40;99.90;;;11.58;100.00;101743.66;4159145;28;20497;-66
2022/01/03 01:12:07;;;;;;;39.28;7.07;;;12.40;99.90;;;11.54;100.00;101734.31;4167435;28;20025;-67
2022/01/03 01:14:09;;;;;;;48.65;7.72;;;12.40;99.90;;;11.61;100.00;101733.66;4170307;28;20042;-66
2022/01/03 01:16:10;;;;;;;37.25;6.47;;;12.40;99.90;;;11.60;100.00;101745.19;4170291;28;20040;-66
2022/01/03 01:18:11;;;;;;;36.50;7.88;;;12.40;99.90;;;11.62;100.00;101752.97;4170277;28;20029;-66
2022/01/03 01:20:15;;;;;;;33.45;6.10;;;12.40;99.90;;;11.59;100.00;101762.00;4170132;28;20473;-66
2022/01/03 01:22:16;;;;;;;34.53;6.80;;;12.40;99.90;;;11.57;100.00;101745.47;4166263;28;20045;-66
2022/01/03 01:24:20;;;;;;;38.05;7.60;;;12.30;99.90;;;11.66;100.00;101759.66;4153574;28;20038;-66
2022/01/03 01:28:43;;;;;;;41.00;6.15;;;12.40;99.90;;;11.71;100.00;101751.34;4153972;28;20141;-66
2022/01/03 01:30:44;;;;;;;34.45;7.05;;;12.30;99.90;;;11.64;100.00;101757.16;4159289;28;20026;-67
2022/01/03 01:33:15;;;;;;;33.95;5.63;;;12.40;99.90;;;11.61;100.00;101759.25;4160182;28;20033;-67
2022/01/03 01:35:22;;;;;;;27.23;6.03;;;12.30;99.90;;;11.62;100.00;101747.69;4157531;28;20054;-67
2022/01/03 01:37:23;;;;;;;25.63;6.82;;;12.40;99.90;;;11.62;100.00;101737.94;4170097;28;20033;-66
2022/01/03 01:39:29;;;;;;;40.75;6.57;;;12.40;99.90;;;11.57;100.00;101737.53;4157314;28;20167;-67
2022/01/03 01:41:33;;;;;;;33.38;7.65;;;12.30;99.90;;;11.64;100.00;101732.53;4168367;28;20112;-66
2022/01/03 01:43:43;;;;;;;36.95;5.93;;;12.40;99.90;;;11.66;100.00;101728.78;4170002;28;20029;-67
2022/01/03 01:45:48;;;;;;;29.33;6.43;;;12.40;99.90;;;11.71;100.00;101736.31;4166903;28;20450;-67
2022/01/03 01:47:53;;;;;;;36.90;6.93;;;12.30;99.90;;;11.71;100.00;101725.72;4166725;28;20022;-67
2022/01/03 01:49:56;;;;;;;44.88;7.80;;;12.40;99.90;;;11.70;100.00;101732.00;4164792;28;20532;-66
2022/01/03 01:52:01;;;;;;;33.67;8.38;;;12.40;99.90;;;11.87;100.00;101735.75;4161103;28;20510;-66
2022/01/03 01:54:05;;;;;;;32.45;5.22;;;12.40;99.90;;;11.84;100.00;101728.94;4156773;28;20038;-66
2022/01/03 01:56:47;;;;;;;38.22;6.22;;;12.50;99.90;;;11.82;100.00;101712.41;4168404;28;20053;-66
2022/01/03 01:59:10;;;;;;;35.47;6.72;;;12.50;99.90;;;11.76;100.00;101715.59;4176379;28;20037;-67
2022/01/03 02:01:13;;;;;;;42.45;8.23;;;12.50;99.90;;;11.78;100.00;101726.03;4166120;28;20014;-66
2022/01/03 02:03:54;;;;;;;48.58;7.03;;;12.50;99.90;;;11.78;100.00;101724.22;4158987;28;20026;-67
2022/01/03 02:06:18;;;;;;;32.72;6.72;;;12.40;99.90;;;11.83;100.00;101714.03;4153336;28;20580;-66
2022/01/03 02:08:39;;;;;;;41.65;7.57;;;12.50;99.90;;;11.83;100.00;101719.34;4153191;28;20109;-67
2022/01/03 02:11:01;;;;;;;41.33;8.45;;;12.50;99.90;;;11.80;100.00;101727.53;4166920;28;20032;-67
2022/01/03 02:13:03;;;;;;;35.30;7.93;;;12.50;99.90;;;11.69;100.00;101717.09;4168408;28;20038;-66
2022/01/03 02:15:09;;;;;;;32.97;7.15;;;12.50;99.90;;;11.71;100.00;101725.72;4168203;28;20030;-66
2022/01/03 02:17:11;;;;;;;35.00;6.60;;;12.50;99.90;;;11.59;100.00;101713.59;4154419;28;20037;-66
2022/01/03 02:19:13;;;;;;;31.35;6.20;;;12.40;99.90;;;11.71;100.00;101717.00;4168439;28;20100;-66
2022/01/03 02:21:15;;;;;;;36.08;7.35;;;12.40;99.90;;;11.65;100.00;101710.41;4154998;28;20029;-66
2022/01/03 02:23:16;;;;;;;38.70;5.97;;;12.50;99.90;;;11.75;100.00;101724.50;4157807;28;20026;-66
2022/01/03 02:25:21;;;;;;;32.50;6.30;;;12.40;99.90;;;11.70;100.00;101737.31;4166162;28;20035;-66
2022/01/03 02:27:22;;;;;;;46.22;8.20;;;12.50;99.90;;;11.65;100.00;101731.53;4164216;28;20026;-67
2022/01/03 02:29:23;;;;;;;38.28;6.97;;;12.40;99.90;;;11.69;100.00;101725.00;4152981;28;20029;-66
2022/01/03 02:31:25;;;;;;;31.17;5.82;;;12.40;99.90;;;11.65;100.00;101715.69;4163429;28;20032;-66
2022/01/03 02:33:26;;;;;;;31.95;6.30;;;12.50;99.90;;;11.78;100.00;101718.94;4154129;28;20056;-66
2022/01/03 02:35:27;;;;;;;48.20;8.45;;;12.40;99.90;;;11.75;100.00;101705.16;4152866;28;20022;-66
2022/01/03 02:37:28;;;;;;;31.58;6.03;;;12.40;99.90;;;11.73;100.00;101712.41;4159806;28;20037;-66
2022/01/03 02:39:29;;;;;;;34.05;7.75;;;12.40;99.90;;;11.74;100.00;101716.72;4167596;28;20026;-66
2022/01/03 02:41:30;;;;;;;41.92;7.80;;;12.40;99.90;;;11.58;100.00;101710.16;4154226;28;20080;-66
2022/01/03 02:43:31;;;;;;;32.25;6.15;;;12.40;99.90;;;11.48;100.00;101703.19;4152768;28;20029;-66
2022/01/03 02:45:32;;;;;;;33.75;6.75;;;12.40;99.90;;;11.61;100.00;101706.38;4152623;28;20061;-66
2022/01/03 02:47:34;;;;;;;32.88;5.65;;;12.40;99.90;;;11.79;100.00;101715.31;4152745;28;20537;-66
2022/01/03 02:49:35;;;;;;;36.25;7.35;;;12.40;99.90;;;11.73;100.00;101715.88;4152423;28;20041;-66
2022/01/03 02:51:36;;;;;;;38.10;8.05;;;12.40;99.90;;;11.67;100.00;101724.34;4152620;28;20026;-66
2022/01/03 02:53:38;;;;;;;45.10;8.88;;;12.40;99.90;;;11.73;100.00;101715.88;4152171;28;20026;-66
2022/01/03 02:55:39;;;;;;;36.35;8.07;;;12.40;99.90;;;11.62;100.00;101695.66;4162556;28;20060;-66
2022/01/03 02:57:46;;;;;;;34.30;7.53;;;12.40;99.90;;;11.68;100.00;101698.75;4154128;28;20028;-66
2022/01/03 02:59:50;;;;;;;41.30;6.88;;;12.40;99.90;;;11.70;100.00;101705.59;4152453;28;20102;-66
2022/01/03 03:01:52;;;;;;;36.63;7.05;;;12.40;99.90;;;11.78;100.00;101704.88;4151250;28;20029;-66
2022/01/03 03:03:53;;;;;;;28.65;7.30;;;12.50;99.90;;;11.76;100.00;101697.09;4164720;28;20087;-66
2022/01/03 03:05:54;;;;;;;39.97;7.88;;;12.50;99.90;;;11.74;100.00;101685.81;4168398;28;20049;-66
2022/01/03 03:07:55;;;;;;;31.05;5.43;;;12.50;99.90;;;11.81;100.00;101671.06;4168891;28;20083;-67
2022/01/03 03:09:57;;;;;;;30.73;6.82;;;12.40;99.90;;;11.87;100.00;101675.78;4168271;28;20049;-66
2022/01/03 03:11:58;;;;;;;37.05;7.57;;;12.50;99.90;;;11.89;100.00;101675.63;4168612;28;20401;-66
2022/01/03 03:13:59;;;;;;;42.53;8.43;;;12.50;99.90;;;11.81;100.00;101668.41;4168421;28;20029;-66
2022/01/03 03:16:00;;;;;;;37.92;7.45;;;12.50;99.90;;;11.79;100.00;101675.66;4168632;28;20025;-66
2022/01/03 03:18:02;;;;;;;40.72;7.93;;;12.50;99.90;;;11.82;100.00;101674.56;4167887;28;20032;-67
2022/01/03 03:20:09;;;;;;;39.97;6.57;;;12.50;99.90;;;11.73;100.00;101670.09;4155395;28;20036;-66
2022/01/03 03:22:09;;;;;;;37.92;7.32;;;12.50;99.90;;;11.70;100.00;101660.66;4157983;28;20025;-67
2022/01/03 03:24:10;;;;;;;37.40;8.15;;;12.50;99.90;;;11.76;100.00;101652.16;4157747;28;20040;-66
2022/01/03 03:26:13;;;;;;;53.63;7.72;;;12.50;99.90;;;11.80;100.00;101652.72;4168500;28;20497;-66
2022/01/03 03:28:15;;;;;;;41.10;6.78;;;12.50;99.90;;;11.77;100.00;101660.94;4168455;28;20033;-66
2022/01/03 03:30:24;;;;;;;40.17;8.95;;;12.60;99.90;;;11.72;100.00;101669.25;4151195;28;20026;-66
2022/01/03 03:32:27;;;;;;;45.45;7.85;;;12.60;99.90;;;11.85;100.00;101682.19;4158856;28;20123;-66
2022/01/03 03:34:28;;;;;;;33.67;5.97;;;12.50;99.90;;;11.77;100.00;101667.03;4168306;28;20026;-66
2022/01/03 03:36:29;;;;;;;31.13;6.22;;;12.50;99.90;;;11.61;100.00;101664.09;4168403;28;20516;-66
2022/01/03 03:38:30;;;;;;;39.33;7.60;;;12.50;99.90;;;11.69;100.00;101669.50;4168228;28;20049;-66
2022/01/03 03:40:31;;;;;;;42.55;6.47;;;12.40;99.90;;;11.70;100.00;101675.66;4168567;28;20029;-67
2022/01/03 03:42:32;;;;;;;45.13;7.32;;;12.40;99.90;;;11.65;100.00;101658.38;4168545;28;20484;-66
2022/01/03 03:44:35;;;;;;;36.67;6.60;;;12.40;99.90;;;11.73;100.00;101657.72;4168480;28;20029;-67
2022/01/03 03:46:36;;;;;;;37.65;7.22;;;12.40;99.90;;;11.73;100.00;101649.81;4168271;28;20029;-66
2022/01/03 03:48:38;;;;;;;30.15;6.93;;;12.40;99.90;;;11.76;100.00;101652.16;4168535;28;20043;-66
2022/01/03 03:50:39;;;;;;;37.92;7.05;;;12.40;99.90;;;11.74;100.00;101645.34;4168493;28;20026;-66
2022/01/03 03:52:40;;;;;;;35.17;7.00;;;12.50;99.90;;;11.82;100.00;101654.25;4168364;28;20029;-66
2022/01/03 03:54:41;;;;;;;41.95;7.10;;;12.40;99.90;;;11.68;100.00;101656.47;4150281;28;20057;-66
2022/01/03 03:56:43;;;;;;;25.85;6.32;;;12.40;99.90;;;11.63;100.00;101660.34;4158272;28;20461;-66
2022/01/03 03:58:44;;;;;;;33.03;6.78;;;12.50;99.90;;;11.63;100.00;101655.06;4158198;28;20037;-66
2022/01/03 04:00:44;;;;;;;35.63;5.88;;;12.40;99.90;;;11.61;100.00;101650.91;4151992;28;20023;-66
2022/01/03 04:02:46;;;;;;;32.67;6.22;;;12.40;99.90;;;11.69;100.00;101643.09;4152007;28;20022;-66
2022/01/03 04:04:46;;;;;;;34.30;7.03;;;12.30;99.90;;;11.69;100.00;101637.81;4151975;28;20038;-66
2022/01/03 04:06:48;;;;;;;36.03;6.85;;;12.30;99.90;;;11.60;100.00;101626.28;4151710;28;20050;-66
2022/01/03 04:08:49;;;;;;;35.67;7.30;;;12.40;99.90;;;11.72;100.00;101615.56;4151473;28;20041;-67
2022/01/03 04:10:50;;;;;;;38.50;6.28;;;12.40;99.90;;;11.66;100.00;101619.59;4154375;28;20021;-66
2022/01/03 04:12:51;;;;;;;33.88;7.47;;;12.30;99.90;;;11.75;100.00;101621.41;4161315;28;20026;-67
2022/01/03 04:14:52;;;;;;;37.50;6.03;;;12.30;99.90;;;11.65;100.00;101613.47;4151802;28;20478;-66
2022/01/03 04:16:53;;;;;;;40.72;6.63;;;12.30;99.90;;;11.72;100.00;101605.00;4163669;28;20079;-66
2022/01/03 04:18:54;;;;;;;30.10;6.57;;;12.30;99.90;;;11.73;100.00;101602.22;4164933;28;20029;-66
2022/01/03 04:20:55;;;;;;;32.40;7.45;;;12.30;99.90;;;11.65;100.00;101605.53;4151790;28;20482;-66
2022/01/03 04:22:55;;;;;;;32.25;7.97;;;12.30;99.90;;;11.62;100.00;101612.91;4157839;28;20037;-66
2022/01/03 04:24:56;;;;;;;37.10;7.97;;;12.30;99.90;;;11.62;100.00;101612.91;4151399;28;20030;-66
2022/01/03 04:26:57;;;;;;;37.75;5.97;;;12.30;99.90;;;11.60;100.00;101613.06;4151788;28;20089;-67
2022/01/03 04:28:58;;;;;;;39.95;7.38;;;12.20;99.90;;;11.54;100.00;101603.06;4153579;28;20032;-66
2022/01/03 04:30:59;;;;;;;32.85;6.88;;;12.20;99.90;;;11.53;100.00;101600.53;4154832;28;20025;-66
2022/01/03 04:33:00;;;;;;;37.05;6.00;;;12.20;99.90;;;11.59;100.00;101594.69;4154701;28;20044;-66
2022/01/03 04:35:02;;;;;;;32.85;6.15;;;12.20;99.90;;;11.63;100.00;101596.06;4154938;28;20451;-67
2022/01/03 04:37:03;;;;;;;25.50;6.07;;;12.20;99.90;;;11.71;100.00;101593.59;4154808;28;20443;-66
2022/01/03 04:39:05;;;;;;;40.10;6.43;;;12.20;99.90;;;11.80;100.00;101578.69;4154609;28;20092;-66
2022/01/03 04:41:06;;;;;;;34.58;6.93;;;12.30;99.90;;;11.61;100.00;101571.63;4154587;28;20486;-66
2022/01/03 04:43:08;;;;;;;34.60;6.90;;;12.30;99.90;;;11.53;100.00;101563.53;4154796;28;20022;-66
2022/01/03 04:45:09;;;;;;;36.53;6.78;;;12.20;99.90;;;11.53;100.00;101569.66;4154722;28;20029;-67
2022/01/03 04:47:10;;;;;;;40.88;8.55;;;12.20;99.90;;;11.60;100.00;101572.56;4154520;28;20033;-66
2022/01/03 04:49:12;;;;;;;37.10;6.63;;;12.20;99.90;;;11.60;100.00;101576.06;4154410;28;20053;-66
2022/01/03 04:51:13;;;;;;;30.95;6.22;;;12.20;99.90;;;11.61;100.00;101572.44;4168965;28;20045;-66
2022/01/03 04:53:14;;;;;;;46.63;8.55;;;12.20;99.90;;;11.54;100.00;101578.44;4164882;28;20065;-66
2022/01/03 04:55:15;;;;;;;47.13;8.88;;;12.20;99.90;;;11.69;100.00;101574.38;4153923;28;20030;-66
2022/01/03 04:57:16;;;;;;;33.15;7.25;;;12.20;99.90;;;11.78;100.00;101568.25;4154291;28;20049;-66
2022/01/03 04:59:16;;;;;;;33.85;7.53;;;12.20;99.90;;;11.64;100.00;101566.88;4154109;28;20049;-66
2022/01/03 05:01:17;;;;;;;38.47;7.13;;;12.30;99.90;;;11.59;100.00;101568.25;4154135;28;20548;-66
2022/01/03 05:03:18;;;;;;;36.20;7.38;;;12.30;99.90;;;11.56;100.00;101556.16;4154262;28;20077;-66
2022/01/03 05:05:19;;;;;;;30.05;6.60;;;12.30;99.90;;;11.56;100.00;101557.97;4169118;28;20500;-67
2022/01/03 05:07:20;;;;;;;34.60;5.75;;;12.30;99.90;;;11.62;100.00;101552.13;4154215;28;20022;-67
2022/01/03 05:09:21;;;;;;;37.33;5.93;;;12.30;99.90;;;11.51;100.00;101558.41;4153972;28;20033;-67
2022/01/03 05:11:22;;;;;;;32.40;6.65;;;12.30;99.90;;;11.64;100.00;101555.47;4152685;28;20433;-66
2022/01/03 05:13:23;;;;;;;33.85;7.18;;;12.20;99.90;;;11.63;100.00;101567.84;4153954;28;20034;-67
2022/01/03 05:15:24;;;;;;;39.42;7.18;;;12.20;99.90;;;11.58;100.00;101562.16;4154020;28;20556;-67
2022/01/03 05:17:25;;;;;;;44.47;7.13;;;12.30;99.90;;;11.64;100.00;101555.47;4153861;28;20022;-66
2022/01/03 05:19:26;;;;;;;45.75;8.32;;;12.20;99.90;;;11.68;100.00;101551.53;4153993;28;20025;-66
2022/01/03 05:21:27;;;;;;;43.72;6.45;;;12.20;99.90;;;11.65;100.00;101562.41;4157571;28;20018;-66
2022/01/03 05:23:28;;;;;;;33.95;8.02;;;12.30;99.90;;;11.75;100.00;101563.25;4156061;28;20026;-67
2022/01/03 05:25:29;;;;;;;27.98;5.82;;;12.30;99.90;;;11.76;100.00;101551.72;4153850;28;20026;-66
2022/01/03 05:27:29;;;;;;;30.13;6.13;;;12.30;99.90;;;11.82;100.00;101539.72;4153957;28;20030;-66
2022/01/03 05:29:30;;;;;;;37.10;6.22;;;12.30;99.90;;;11.72;100.00;101539.75;4153871;28;20018;-66
2022/01/03 05:31:32;;;;;;;35.08;6.85;;;12.40;99.90;;;11.82;100.00;101539.72;4153682;28;20085;-66
2022/01/03 05:33:32;;;;;;;36.22;7.25;;;12.40;99.90;;;11.71;100.00;101535.44;4156986;28;20029;-66
2022/01/03 05:35:33;;;;;;;35.03;7.07;;;12.40;99.90;;;11.73;100.00;101544.06;4170076;28;20083;-67
2022/01/03 05:37:34;;;;;;;35.90;6.45;;;12.30;99.90;;;11.78;100.00;101547.09;4170001;28;20026;-66
2022/01/03 05:39:36;;;;;;;30.27;5.78;;;12.30;99.90;;;11.68;100.00;101546.25;4169147;28;20477;-67
2022/01/03 05:41:37;;;;;;;35.72;7.07;;;12.30;99.90;;;11.75;100.00;101536.81;4165091;28;20026;-66
2022/01/03 05:43:38;;;;;;;40.88;7.82;;;12.40;99.90;;;11.77;100.00;101537.50;4160111;28;20110;-66
2022/01/03 05:45:39;;;;;;;27.88;5.38;;;12.40;99.90;;;11.72;100.00;101538.91;4169881;28;20481;-66
2022/01/03 05:47:42;;;;;;;37.90;7.88;;;12.30;99.90;;;11.79;100.00;101554.06;4169839;28;20079;-66
2022/01/03 05:49:43;;;;;;;32.88;7.85;;;12.40;99.90;;;11.64;100.00;101539.63;4169811;28;20044;-66
2022/01/03 05:51:44;;;;;;;40.25;7.40;;;12.30;99.90;;;11.65;100.00;101547.38;4169915;28;20029;-66
2022/01/03 05:53:45;;;;;;;46.03;7.95;;;12.30;99.90;;;11.70;100.00;101546.16;4169412;28;20112;-66
2022/01/03 05:55:46;;;;;;;40.53;9.30;;;12.30;99.90;;;11.84;100.00;101543.88;4169811;28;20033;-66
2022/01/03 05:57:47;;;;;;;33.92;8.30;;;12.40;99.90;;;11.85;100.00;101531.50;4167546;28;20490;-66
2022/01/03 05:59:48;;;;;;;37.22;6.72;;;12.40;99.90;;;11.80;100.00;101512.63;4169757;28;20493;-66
2022/01/03 06:01:50;;;;;;;36.40;6.35;;;12.40;99.90;;;11.74;100.00;101506.06;4169809;28;20026;-66
2022/01/03 06:04:11;;;;;;;35.00;6.50;;;12.40;99.90;;;11.73;100.00;101500.94;4169881;28;20468;-67
2022/01/03 06:08:13;;;;;;;36.53;7.80;;;12.40;99.90;;;11.73;100.00;101516.81;4161298;28;20450;-67
2022/01/03 06:10:17;;;;;;;41.65;6.55;;;12.40;99.90;;;11.67;100.00;101510.25;4153216;28;20049;-66
2022/01/03 06:12:19;;;;;;;33.17;5.95;;;12.40;99.90;;;11.76;100.00;101505.94;4153128;28;20026;-66
2022/01/03 06:14:22;;;;;;;37.55;7.95;;;12.30;99.90;;;11.81;100.00;101509.81;4152990;28;20060;-67
2022/01/03 06:16:24;;;;;;;48.67;8.45;;;12.40;99.90;;;11.71;100.00;101505.56;4160295;28;20025;-66
2022/01/03 06:18:25;;;;;;;41.33;7.20;;;12.50;99.90;;;11.69;100.00;101508.28;4164627;28;20028;-66
2022/01/03 06:20:26;;;;;;;35.97;6.18;;;12.40;99.90;;;11.73;100.00;101506.22;4169172;28;20033;-66
2022/01/03 06:22:27;;;;;;;38.83;8.68;;;12.40;99.90;;;11.75;100.00;101499.81;4162812;28;20429;-66
2022/01/03 06:24:28;;;;;;;39.20;7.25;;;12.40;99.90;;;11.72;100.00;101500.09;4161049;28;20030;-66
2022/01/03 06:26:29;;;;;;;37.25;8.18;;;12.30;99.90;;;11.65;100.00;101498.97;4156458;28;20054;-66
2022/01/03 06:28:29;;;;;;;36.72;8.07;;;12.30;99.90;;;11.68;100.00;101513.75;4167585;28;20116;-66
2022/01/03 06:30:30;;;;;;;33.42;5.68;;;12.40;99.90;;;11.76;100.00;101522.66;4168907;28;20037;-66
2022/01/03 06:32:31;;;;;;;42.75;6.90;;;12.30;99.90;;;11.70;100.00;101512.66;4169058;28;20036;-66
2022/01/03 06:34:32;;;;;;;36.50;5.97;;;12.40;99.90;;;11.76;100.00;101504.13;4168998;28;20030;-66
2022/01/03 06:36:33;;;;;;;43.90;8.30;;;12.40;99.90;;;11.67;100.00;101497.03;4168842;28;20036;-66
2022/01/03 06:38:34;;;;;;;37.75;6.50;;;12.40;99.90;;;11.68;100.00;101504.81;4168838;28;20459;-66
2022/01/03 06:40:35;;;;;;;44.88;6.43;;;12.40;99.90;;;11.72;100.00;101491.34;4168747;28;20021;-66
2022/01/03 06:42:36;;;;;;;30.92;6.10;;;12.30;99.90;;;11.65;100.00;101477.84;4153654;28;20040;-66
2022/01/03 06:44:37;;;;;;;28.73;5.55;;;12.30;99.90;;;11.65;100.00;101494.53;4152508;28;20057;-66
2022/01/03 06:46:38;;;;;;;27.55;4.88;;;12.30;99.90;;;11.65;100.00;101489.25;4152627;28;20060;-67
2022/01/03 06:48:39;;;;;;;38.30;8.00;;;12.30;99.90;;;11.71;100.00;101485.22;4158233;28;20039;-67
2022/01/03 06:50:40;;;;;;;40.05;6.25;;;12.30;99.90;;;11.68;100.00;101480.19;4159053;28;20473;-67
2022/01/03 06:52:41;;;;;;;34.92;5.53;;;12.30;99.90;;;11.82;100.00;101479.78;4152482;28;20029;-67
2022/01/03 06:54:42;;;;;;;30.35;7.18;;;12.40;99.90;;;11.72;100.00;101473.69;4152234;28;20109;-67
2022/01/03 06:56:43;;;;;;;36.17;7.07;;;12.30;99.90;;;11.67;100.00;101475.91;4152363;28;20036;-67
2022/01/03 06:58:46;;;;;;;36.83;7.10;;;12.40;99.90;;;11.66;100.00;101471.59;4152425;28;20021;-67
2022/01/03 07:00:47;;;;;;;34.53;6.70;;;12.40;99.90;;;11.70;100.00;101475.66;4152230;28;20033;-67
2022/01/03 07:02:48;;;;;;;33.53;6.18;;;12.40;99.90;;;11.66;100.00;101484.78;4152371;28;20022;-67
2022/01/03 07:04:49;;;;;;;34.28;6.85;;;12.40;99.90;;;11.62;100.00;101478.13;4152337;28;20104;-67
2022/01/03 07:06:50;;;;;;;37.38;6.03;;;12.40;99.90;;;11.64;100.00;101478.84;4152168;28;20049;-67
2022/01/03 07:08:51;;;;;;;37.55;6.90;;;12.40;99.90;;;11.70;100.00;101473.00;4150424;28;20037;-67
2022/01/03 07:10:52;;;;;;;30.85;5.75;;;12.40;99.90;;;11.69;100.00;101458.06;4152412;28;20030;-67
2022/01/03 07:12:54;;;;;;;39.13;7.60;;;12.40;99.90;;;11.71;100.00;101450.06;4152167;28;20045;-67
2022/01/03 07:19:20;;;;;;;30.85;6.93;;;12.40;99.90;;;11.78;100.00;101440.53;4152053;28;20063;-67
2022/01/03 07:21:21;;;;;;;34.55;6.90;;;12.40;99.90;;;11.80;100.00;101436.78;4154799;28;20030;-67
2022/01/03 07:23:23;;;;;;;36.40;7.18;;;12.40;99.90;;;11.78;100.00;101438.72;4153971;28;20026;-67
2022/01/03 07:25:23;;;;;;;35.80;6.93;;;12.50;99.90;;;11.70;100.00;101430.72;4152151;28;20028;-67
2022/01/03 07:27:24;;;;;;;29.70;7.03;;;12.40;99.90;;;11.71;100.00;101428.91;4157050;28;20025;-67
2022/01/03 07:29:25;;;;;;;28.33;6.50;;;12.40;99.90;;;11.82;100.00;101432.19;4159009;28;20048;-67
2022/01/03 07:31:26;;;;;;;29.63;5.22;;;12.40;99.90;;;11.85;100.00;101434.53;4151950;28;20025;-67
2022/01/03 07:33:27;;;;;;;36.92;7.00;;;12.50;99.90;;;11.84;100.00;101434.66;4150700;28;20029;-67
2022/01/03 07:35:28;;;;;;;28.65;6.22;;;12.50;99.90;;;11.75;100.00;101432.91;4167063;28;20026;-67
2022/01/03 07:37:29;;;;;;;26.77;5.30;;;12.50;99.90;;;11.88;100.00;101423.66;4151986;28;20491;-67
2022/01/03 07:39:31;;;;;;;36.08;7.55;;;12.50;99.90;;;11.82;100.00;101411.03;4155618;28;20477;-67
2022/01/03 07:41:31;;;;;;;30.52;5.40;;;12.50;99.90;;;11.82;100.00;101408.41;4152791;28;20441;-67
2022/01/03 07:43:32;;;;;;;32.42;5.40;;;12.50;99.90;;;11.86;100.00;101422.13;4151906;28;20034;-68
2022/01/03 07:45:33;;;;;;;32.78;5.05;;;12.50;99.90;;;11.96;100.00;101421.09;4151851;28;20026;-67
2022/01/03 07:47:34;;;;;;;33.33;5.53;;;12.50;99.90;;;11.92;100.00;101427.66;4151805;28;20041;-67
2022/01/03 07:49:35;;;;;;;35.10;6.40;;;12.50;99.90;;;11.82;100.00;101436.63;4151721;28;20026;-67
2022/01/03 07:51:36;;;;;;;33.20;6.10;;;12.50;99.90;;;11.87;100.00;101421.16;4152089;28;20033;-67
2022/01/03 07:53:38;;;;;;;36.05;6.85;;;12.50;99.90;;;11.82;100.00;101420.78;4151480;28;20117;-67
2022/01/03 07:55:39;;;;;;;28.75;6.53;;;12.50;99.90;;;11.97;100.00;101427.22;4151745;28;20033;-67
2022/01/03 07:57:41;;;;;;;29.15;4.38;;;12.50;99.90;;;11.88;100.00;101426.31;4151735;28;20080;-67
2022/01/03 07:59:42;;;;;;;24.42;4.45;;;12.50;99.90;;;11.88;100.00;101428.13;4151810;28;20101;-67
2022/01/03 08:01:43;;;;;;;25.63;6.32;;;12.50;99.90;;;11.86;100.00;101422.13;4151927;28;20037;-67
2022/01/03 08:03:44;;;;;;;28.23;5.32;;;12.50;99.90;;;11.87;100.00;101429.09;4153232;28;20123;-67
2022/01/03 08:05:45;;;;;;;32.85;4.88;;;12.50;99.90;;;11.91;100.00;101430.47;4154849;28;20057;-67
2022/01/03 08:07:46;;;;;;;32.78;5.53;;;12.50;99.90;;;11.91;100.00;101423.38;4154995;28;20102;-67
2022/01/03 08:09:47;;;;;;;31.05;7.22;;;12.50;99.90;;;12.00;100.00;101425.13;4154745;28;20505;-67
2022/01/03 08:11:48;;;;;;;24.50;5.05;;;12.50;99.90;;;12.03;100.00;101429.28;4164194;28;20041;-68
2022/01/03 08:13:49;;;;;;;29.20;6.95;;;12.60;99.90;;;11.99;100.00;101427.91;4157202;28;20038;-68
2022/01/03 08:15:50;;;;;;;31.38;5.05;;;12.60;99.90;;;11.75;100.00;101430.25;4153610;28;20037;-68
2022/01/03 08:17:51;;;;;;;31.80;5.35;;;12.50;99.90;;;11.68;100.00;101421.25;4154839;28;20030;-68
2022/01/03 08:19:52;;;;;;;26.48;5.32;;;12.40;99.90;;;11.68;100.00;101430.81;4154823;28;20524;-68
2022/01/03 08:21:53;;;;;;;24.85;5.28;;;12.40;99.90;;;11.80;100.00;101422.75;4166675;28;20025;-68
2022/01/03 08:23:54;;;;;;;32.13;6.20;;;12.50;99.90;;;11.79;100.00;101419.25;4153303;28;20034;-68
2022/01/03 08:25:55;;;;;;;30.33;5.85;;;12.50;99.90;;;11.75;100.00;101419.69;4161630;28;20056;-68
2022/01/03 08:27:56;;;;;;;32.20;5.75;;;12.50;99.90;;;11.82;100.00;101416.31;4159251;28;20044;-68
2022/01/03 08:29:57;;;;;;;26.95;6.05;;;12.50;99.90;;;11.71;100.00;101429.72;4153142;28;20026;-68